sensor_id;sensor_type;location;lat;lon;timestamp;temperature;humidity
75994;DHT22;64680;53.800;9.988;2023-09-30T00:01:00;11.90;96.70
75994;DHT22;64680;53.800;9.988;2023-09-30T00:03:25;11.90;96.80
75994;DHT22;64680;53.800;9.988;2023-09-30T00:05:51;11.90;93.40
75994;DHT22;64680;53.800;9.988;2023-09-30T00:08:17;11.90;94.70
75994;DHT22;64680;53.800;9.988;2023-09-30T00:10:42;11.80;94.90
75994;DHT22;64680;53.800;9.988;2023-09-30T00:13:08;11.80;94.20
75994;DHT22;64680;53.800;9.988;2023-09-30T00:15:34;11.80;94.80
75994;DHT22;64680;53.800;9.988;2023-09-30T00:18:01;11.70;94.00
75994;DHT22;64680;53.800;9.988;2023-09-30T00:20:29;11.70;94.90
75994;DHT22;64680;53.800;9.988;2023-09-30T00:22:54;11.70;95.00
75994;DHT22;64680;53.800;9.988;2023-09-30T00:25:20;11.70;95.20
75994;DHT22;64680;53.800;9.988;2023-09-30T00:27:47;11.70;94.80
75994;DHT22;64680;53.800;9.988;2023-09-30T00:30:12;11.70;96.10
75994;DHT22;64680;53.800;9.988;2023-09-30T00:32:38;11.60;96.20
75994;DHT22;64680;53.800;9.988;2023-09-30T00:35:05;11.60;96.30
75994;DHT22;64680;53.800;9.988;2023-09-30T00:37:39;11.60;97.00
75994;DHT22;64680;53.800;9.988;2023-09-30T00:40:07;11.60;97.20
75994;DHT22;64680;53.800;9.988;2023-09-30T00:42:37;11.60;98.00
75994;DHT22;64680;53.800;9.988;2023-09-30T00:45:04;11.60;97.50
75994;DHT22;64680;53.800;9.988;2023-09-30T00:47:30;11.60;98.30
75994;DHT22;64680;53.800;9.988;2023-09-30T00:49:56;11.60;97.00
75994;DHT22;64680;53.800;9.988;2023-09-30T00:52:22;11.60;98.70
75994;DHT22;64680;53.800;9.988;2023-09-30T00:54:48;11.70;98.00
75994;DHT22;64680;53.800;9.988;2023-09-30T00:57:25;11.60;98.40
75994;DHT22;64680;53.800;9.988;2023-09-30T00:59:51;11.60;98.80
75994;DHT22;64680;53.800;9.988;2023-09-30T01:02:18;11.60;99.90
75994;DHT22;64680;53.800;9.988;2023-09-30T01:04:44;11.60;99.90
75994;DHT22;64680;53.800;9.988;2023-09-30T01:07:10;11.60;99.50
75994;DHT22;64680;53.800;9.988;2023-09-30T01:09:38;11.60;99.90
75994;DHT22;64680;53.800;9.988;2023-09-30T01:12:04;11.50;99.90
75994;DHT22;64680;53.800;9.988;2023-09-30T01:14:32;11.50;99.90
75994;DHT22;64680;53.800;9.988;2023-09-30T01:17:00;11.60;99.90
75994;DHT22;64680;53.800;9.988;2023-09-30T01:19:25;11.60;99.80
75994;DHT22;64680;53.800;9.988;2023-09-30T01:21:55;11.60;99.90
75994;DHT22;64680;53.800;9.988;2023-09-30T01:24:27;11.60;99.90
75994;DHT22;64680;53.800;9.988;2023-09-30T01:26:53;11.60;99.90
75994;DHT22;64680;53.800;9.988;2023-09-30T01:29:19;11.60;99.90
75994;DHT22;64680;53.800;9.988;2023-09-30T01:31:44;11.60;99.90
75994;DHT22;64680;53.800;9.988;2023-09-30T01:34:14;11.70;99.90
75994;DHT22;64680;53.800;9.988;2023-09-30T01:36:41;11.70;99.90
75994;DHT22;64680;53.800;9.988;2023-09-30T01:39:07;11.80;99.90
75994;DHT22;64680;53.800;9.988;2023-09-30T01:41:33;11.80;99.90
75994;DHT22;64680;53.800;9.988;2023-09-30T01:43:58;11.80;99.90
75994;DHT22;64680;53.800;9.988;2023-09-30T01:46:24;11.80;99.90
75994;DHT22;64680;53.800;9.988;2023-09-30T01:48:49;11.80;99.90
75994;DHT22;64680;53.800;9.988;2023-09-30T01:51:15;11.80;99.90
75994;DHT22;64680;53.800;9.988;2023-09-30T01:53:41;11.80;99.90
75994;DHT22;64680;53.800;9.988;2023-09-30T01:56:08;11.80;99.90
75994;DHT22;64680;53.800;9.988;2023-09-30T01:58:33;11.70;99.90
75994;DHT22;64680;53.800;9.988;2023-09-30T02:01:03;11.80;99.60
75994;DHT22;64680;53.800;9.988;2023-09-30T02:03:29;11.70;99.90
75994;DHT22;64680;53.800;9.988;2023-09-30T02:05:58;11.70;99.90
75994;DHT22;64680;53.800;9.988;2023-09-30T02:08:24;11.70;99.90
75994;DHT22;64680;53.800;9.988;2023-09-30T02:10:50;11.70;99.90
75994;DHT22;64680;53.800;9.988;2023-09-30T02:13:19;11.70;99.90
75994;DHT22;64680;53.800;9.988;2023-09-30T02:15:45;11.60;99.90
75994;DHT22;64680;53.800;9.988;2023-09-30T02:18:11;11.70;99.90
75994;DHT22;64680;53.800;9.988;2023-09-30T02:20:37;11.60;99.90
75994;DHT22;64680;53.800;9.988;2023-09-30T02:23:07;11.70;99.90
75994;DHT22;64680;53.800;9.988;2023-09-30T02:25:33;11.70;99.90
75994;DHT22;64680;53.800;9.988;2023-09-30T02:27:59;11.70;99.90
75994;DHT22;64680;53.800;9.988;2023-09-30T02:30:25;11.70;99.60
75994;DHT22;64680;53.800;9.988;2023-09-30T02:32:53;11.70;99.90
75994;DHT22;64680;53.800;9.988;2023-09-30T02:35:18;11.60;99.90
75994;DHT22;64680;53.800;9.988;2023-09-30T02:37:49;11.60;99.90
75994;DHT22;64680;53.800;9.988;2023-09-30T02:40:18;11.50;99.90
75994;DHT22;64680;53.800;9.988;2023-09-30T02:42:44;11.60;99.90
75994;DHT22;64680;53.800;9.988;2023-09-30T02:45:11;11.50;99.90
75994;DHT22;64680;53.800;9.988;2023-09-30T02:47:38;11.50;99.40
75994;DHT22;64680;53.800;9.988;2023-09-30T02:50:07;11.50;99.90
75994;DHT22;64680;53.800;9.988;2023-09-30T02:52:39;11.50;99.60
75994;DHT22;64680;53.800;9.988;2023-09-30T02:55:10;11.50;99.90
75994;DHT22;64680;53.800;9.988;2023-09-30T02:57:36;11.40;99.90
75994;DHT22;64680;53.800;9.988;2023-09-30T03:00:03;11.40;99.90
75994;DHT22;64680;53.800;9.988;2023-09-30T03:02:50;11.40;99.90
75994;DHT22;64680;53.800;9.988;2023-09-30T03:05:17;11.40;99.90
75994;DHT22;64680;53.800;9.988;2023-09-30T03:07:42;11.50;99.90
75994;DHT22;64680;53.800;9.988;2023-09-30T03:10:09;11.50;99.90
75994;DHT22;64680;53.800;9.988;2023-09-30T03:12:35;11.40;99.90
75994;DHT22;64680;53.800;9.988;2023-09-30T03:15:01;11.40;99.90
75994;DHT22;64680;53.800;9.988;2023-09-30T03:17:30;11.40;99.90
75994;DHT22;64680;53.800;9.988;2023-09-30T03:19:55;11.40;99.90
75994;DHT22;64680;53.800;9.988;2023-09-30T03:22:22;11.30;99.90
75994;DHT22;64680;53.800;9.988;2023-09-30T03:24:48;11.30;99.90
75994;DHT22;64680;53.800;9.988;2023-09-30T03:27:14;11.30;99.90
75994;DHT22;64680;53.800;9.988;2023-09-30T03:29:41;11.30;99.90
75994;DHT22;64680;53.800;9.988;2023-09-30T03:32:06;11.20;99.90
75994;DHT22;64680;53.800;9.988;2023-09-30T03:34:34;11.30;99.90
75994;DHT22;64680;53.800;9.988;2023-09-30T03:37:02;11.20;99.90
75994;DHT22;64680;53.800;9.988;2023-09-30T03:39:27;11.20;99.90
75994;DHT22;64680;53.800;9.988;2023-09-30T03:41:56;11.20;99.90
75994;DHT22;64680;53.800;9.988;2023-09-30T03:44:23;11.20;99.90
75994;DHT22;64680;53.800;9.988;2023-09-30T03:46:51;11.10;99.90
75994;DHT22;64680;53.800;9.988;2023-09-30T03:49:16;11.20;99.90
75994;DHT22;64680;53.800;9.988;2023-09-30T03:51:42;11.20;99.90
75994;DHT22;64680;53.800;9.988;2023-09-30T03:54:07;11.30;99.90
75994;DHT22;64680;53.800;9.988;2023-09-30T03:56:34;11.30;99.90
75994;DHT22;64680;53.800;9.988;2023-09-30T03:58:59;11.30;99.90
75994;DHT22;64680;53.800;9.988;2023-09-30T04:01:25;11.40;99.90
75994;DHT22;64680;53.800;9.988;2023-09-30T04:03:52;11.40;99.90
75994;DHT22;64680;53.800;9.988;2023-09-30T04:06:21;11.30;99.90
75994;DHT22;64680;53.800;9.988;2023-09-30T04:08:47;11.30;99.90
75994;DHT22;64680;53.800;9.988;2023-09-30T04:11:13;11.30;99.90
75994;DHT22;64680;53.800;9.988;2023-09-30T04:13:44;11.30;99.90
75994;DHT22;64680;53.800;9.988;2023-09-30T04:16:10;11.20;99.90
75994;DHT22;64680;53.800;9.988;2023-09-30T04:18:36;11.20;99.90
75994;DHT22;64680;53.800;9.988;2023-09-30T04:21:02;11.10;99.90
75994;DHT22;64680;53.800;9.988;2023-09-30T04:23:29;11.20;99.90
75994;DHT22;64680;53.800;9.988;2023-09-30T04:25:55;11.10;99.90
75994;DHT22;64680;53.800;9.988;2023-09-30T04:28:21;11.10;99.90
75994;DHT22;64680;53.800;9.988;2023-09-30T04:30:47;11.10;99.90
75994;DHT22;64680;53.800;9.988;2023-09-30T04:33:15;11.10;99.90
75994;DHT22;64680;53.800;9.988;2023-09-30T04:35:40;11.20;99.90
75994;DHT22;64680;53.800;9.988;2023-09-30T04:38:06;11.10;99.90
75994;DHT22;64680;53.800;9.988;2023-09-30T04:40:31;11.10;99.90
75994;DHT22;64680;53.800;9.988;2023-09-30T04:42:59;11.10;99.90
75994;DHT22;64680;53.800;9.988;2023-09-30T04:45:25;11.10;99.90
75994;DHT22;64680;53.800;9.988;2023-09-30T04:47:54;11.10;99.90
75994;DHT22;64680;53.800;9.988;2023-09-30T04:50:23;11.00;99.90
75994;DHT22;64680;53.800;9.988;2023-09-30T04:52:50;11.10;99.90
75994;DHT22;64680;53.800;9.988;2023-09-30T04:55:16;11.10;99.90
75994;DHT22;64680;53.800;9.988;2023-09-30T04:57:45;11.20;99.90
75994;DHT22;64680;53.800;9.988;2023-09-30T05:00:14;11.20;99.90
75994;DHT22;64680;53.800;9.988;2023-09-30T05:02:39;11.20;99.90
75994;DHT22;64680;53.800;9.988;2023-09-30T05:05:06;11.20;99.90
75994;DHT22;64680;53.800;9.988;2023-09-30T05:07:32;11.20;99.90
75994;DHT22;64680;53.800;9.988;2023-09-30T05:09:58;11.20;99.90
75994;DHT22;64680;53.800;9.988;2023-09-30T05:12:25;11.20;99.90
75994;DHT22;64680;53.800;9.988;2023-09-30T05:14:51;11.20;99.90
75994;DHT22;64680;53.800;9.988;2023-09-30T05:17:17;11.20;99.90
75994;DHT22;64680;53.800;9.988;2023-09-30T05:19:43;11.20;99.90
75994;DHT22;64680;53.800;9.988;2023-09-30T05:22:10;11.20;99.90
75994;DHT22;64680;53.800;9.988;2023-09-30T05:24:36;11.10;99.90
75994;DHT22;64680;53.800;9.988;2023-09-30T05:27:02;11.20;99.90
75994;DHT22;64680;53.800;9.988;2023-09-30T05:29:29;11.20;99.90
75994;DHT22;64680;53.800;9.988;2023-09-30T05:31:54;11.20;99.90
75994;DHT22;64680;53.800;9.988;2023-09-30T05:34:20;11.20;99.90
75994;DHT22;64680;53.800;9.988;2023-09-30T05:36:46;11.20;99.90
75994;DHT22;64680;53.800;9.988;2023-09-30T05:39:11;11.30;99.90
75994;DHT22;64680;53.800;9.988;2023-09-30T05:41:38;11.30;99.90
75994;DHT22;64680;53.800;9.988;2023-09-30T05:44:04;11.30;99.90
75994;DHT22;64680;53.800;9.988;2023-09-30T05:46:33;11.20;99.90
75994;DHT22;64680;53.800;9.988;2023-09-30T05:48:58;11.20;99.90
75994;DHT22;64680;53.800;9.988;2023-09-30T05:51:27;11.20;99.90
75994;DHT22;64680;53.800;9.988;2023-09-30T05:53:52;11.30;99.90
75994;DHT22;64680;53.800;9.988;2023-09-30T05:56:19;11.30;99.90
75994;DHT22;64680;53.800;9.988;2023-09-30T05:58:45;11.40;99.90
75994;DHT22;64680;53.800;9.988;2023-09-30T06:01:12;11.40;99.90
75994;DHT22;64680;53.800;9.988;2023-09-30T06:03:38;11.40;99.90
75994;DHT22;64680;53.800;9.988;2023-09-30T06:06:11;11.40;99.90
75994;DHT22;64680;53.800;9.988;2023-09-30T06:08:38;11.40;99.90
75994;DHT22;64680;53.800;9.988;2023-09-30T06:11:03;11.50;99.60
75994;DHT22;64680;53.800;9.988;2023-09-30T06:13:29;11.50;98.40
75994;DHT22;64680;53.800;9.988;2023-09-30T06:15:57;11.50;99.10
75994;DHT22;64680;53.800;9.988;2023-09-30T06:18:23;11.50;99.70
75994;DHT22;64680;53.800;9.988;2023-09-30T06:20:49;11.60;99.30
75994;DHT22;64680;53.800;9.988;2023-09-30T06:23:15;11.60;99.50
75994;DHT22;64680;53.800;9.988;2023-09-30T06:25:41;11.60;99.70
75994;DHT22;64680;53.800;9.988;2023-09-30T06:28:07;11.60;99.90
75994;DHT22;64680;53.800;9.988;2023-09-30T06:30:33;11.70;99.10
75994;DHT22;64680;53.800;9.988;2023-09-30T06:33:00;11.80;99.60
75994;DHT22;64680;53.800;9.988;2023-09-30T06:35:27;11.90;98.00
75994;DHT22;64680;53.800;9.988;2023-09-30T06:37:55;12.00;96.00
75994;DHT22;64680;53.800;9.988;2023-09-30T06:40:20;12.00;95.10
75994;DHT22;64680;53.800;9.988;2023-09-30T06:42:46;12.00;94.90
75994;DHT22;64680;53.800;9.988;2023-09-30T06:45:12;12.00;94.20
75994;DHT22;64680;53.800;9.988;2023-09-30T06:47:39;12.00;94.30
75994;DHT22;64680;53.800;9.988;2023-09-30T06:50:12;12.10;92.70
75994;DHT22;64680;53.800;9.988;2023-09-30T06:52:41;12.10;92.90
75994;DHT22;64680;53.800;9.988;2023-09-30T06:55:08;12.00;92.90
75994;DHT22;64680;53.800;9.988;2023-09-30T06:57:37;12.20;93.70
75994;DHT22;64680;53.800;9.988;2023-09-30T07:00:11;12.30;92.10
75994;DHT22;64680;53.800;9.988;2023-09-30T07:02:38;12.50;89.20
75994;DHT22;64680;53.800;9.988;2023-09-30T07:05:15;12.60;87.50
75994;DHT22;64680;53.800;9.988;2023-09-30T07:07:41;12.70;87.00
75994;DHT22;64680;53.800;9.988;2023-09-30T07:10:11;12.80;85.80
75994;DHT22;64680;53.800;9.988;2023-09-30T07:12:37;12.90;83.80
75994;DHT22;64680;53.800;9.988;2023-09-30T07:15:04;13.00;80.10
75994;DHT22;64680;53.800;9.988;2023-09-30T07:17:30;13.10;83.70
75994;DHT22;64680;53.800;9.988;2023-09-30T07:19:56;13.20;76.80
75994;DHT22;64680;53.800;9.988;2023-09-30T07:22:22;13.20;77.90
75994;DHT22;64680;53.800;9.988;2023-09-30T07:24:48;13.30;78.90
75994;DHT22;64680;53.800;9.988;2023-09-30T07:27:13;13.40;75.40
75994;DHT22;64680;53.800;9.988;2023-09-30T07:29:39;13.40;75.50
75994;DHT22;64680;53.800;9.988;2023-09-30T07:32:07;13.50;74.50
75994;DHT22;64680;53.800;9.988;2023-09-30T07:34:33;13.50;72.60
75994;DHT22;64680;53.800;9.988;2023-09-30T07:36:59;13.50;73.10
75994;DHT22;64680;53.800;9.988;2023-09-30T07:39:24;13.60;73.80
75994;DHT22;64680;53.800;9.988;2023-09-30T07:41:50;13.60;71.90
75994;DHT22;64680;53.800;9.988;2023-09-30T07:44:16;13.80;69.50
75994;DHT22;64680;53.800;9.988;2023-09-30T07:46:41;13.80;69.20
75994;DHT22;64680;53.800;9.988;2023-09-30T07:49:11;13.80;71.30
75994;DHT22;64680;53.800;9.988;2023-09-30T07:51:37;13.90;68.70
75994;DHT22;64680;53.800;9.988;2023-09-30T07:54:05;13.90;69.80
75994;DHT22;64680;53.800;9.988;2023-09-30T07:56:31;14.00;66.90
75994;DHT22;64680;53.800;9.988;2023-09-30T07:58:56;14.10;64.80
75994;DHT22;64680;53.800;9.988;2023-09-30T08:01:22;14.20;62.50
75994;DHT22;64680;53.800;9.988;2023-09-30T08:03:48;14.40;60.00
75994;DHT22;64680;53.800;9.988;2023-09-30T08:06:13;14.50;59.60
75994;DHT22;64680;53.800;9.988;2023-09-30T08:08:39;14.50;57.80
75994;DHT22;64680;53.800;9.988;2023-09-30T08:11:06;14.60;58.20
75994;DHT22;64680;53.800;9.988;2023-09-30T08:13:32;14.70;56.20
75994;DHT22;64680;53.800;9.988;2023-09-30T08:16:00;14.80;58.40
75994;DHT22;64680;53.800;9.988;2023-09-30T08:18:25;15.00;57.30
75994;DHT22;64680;53.800;9.988;2023-09-30T08:20:51;15.10;53.10
75994;DHT22;64680;53.800;9.988;2023-09-30T08:23:17;15.30;52.10
75994;DHT22;64680;53.800;9.988;2023-09-30T08:25:43;15.40;49.40
75994;DHT22;64680;53.800;9.988;2023-09-30T08:28:09;15.40;48.30
75994;DHT22;64680;53.800;9.988;2023-09-30T08:30:37;15.50;48.40
75994;DHT22;64680;53.800;9.988;2023-09-30T08:33:03;15.50;44.20
75994;DHT22;64680;53.800;9.988;2023-09-30T08:35:30;15.50;45.00
75994;DHT22;64680;53.800;9.988;2023-09-30T08:37:57;15.60;42.90
75994;DHT22;64680;53.800;9.988;2023-09-30T08:40:23;15.70;42.70
75994;DHT22;64680;53.800;9.988;2023-09-30T08:42:52;15.80;40.00
75994;DHT22;64680;53.800;9.988;2023-09-30T08:45:18;15.90;40.10
75994;DHT22;64680;53.800;9.988;2023-09-30T08:47:45;16.00;40.70
75994;DHT22;64680;53.800;9.988;2023-09-30T08:50:12;16.20;39.70
75994;DHT22;64680;53.800;9.988;2023-09-30T08:52:44;16.30;35.10
75994;DHT22;64680;53.800;9.988;2023-09-30T08:55:11;16.30;35.50
75994;DHT22;64680;53.800;9.988;2023-09-30T08:57:40;16.40;34.10
75994;DHT22;64680;53.800;9.988;2023-09-30T09:00:08;16.40;29.40
75994;DHT22;64680;53.800;9.988;2023-09-30T09:02:37;16.50;31.10
75994;DHT22;64680;53.800;9.988;2023-09-30T09:05:03;16.70;30.60
75994;DHT22;64680;53.800;9.988;2023-09-30T09:07:29;16.80;30.40
75994;DHT22;64680;53.800;9.988;2023-09-30T09:10:06;16.80;26.10
75994;DHT22;64680;53.800;9.988;2023-09-30T09:12:34;16.80;23.70
75994;DHT22;64680;53.800;9.988;2023-09-30T09:14:59;16.80;25.90
75994;DHT22;64680;53.800;9.988;2023-09-30T09:17:40;16.80;30.10
75994;DHT22;64680;53.800;9.988;2023-09-30T09:20:07;16.90;27.80
75994;DHT22;64680;53.800;9.988;2023-09-30T09:22:43;17.10;24.40
75994;DHT22;64680;53.800;9.988;2023-09-30T09:25:10;17.20;20.90
75994;DHT22;64680;53.800;9.988;2023-09-30T09:27:36;17.20;20.40
75994;DHT22;64680;53.800;9.988;2023-09-30T09:30:26;17.20;24.40
75994;DHT22;64680;53.800;9.988;2023-09-30T09:33:02;17.40;19.50
75994;DHT22;64680;53.800;9.988;2023-09-30T09:35:29;17.50;19.10
75994;DHT22;64680;53.800;9.988;2023-09-30T09:38:06;17.70;17.30
75994;DHT22;64680;53.800;9.988;2023-09-30T09:40:36;17.50;13.90
75994;DHT22;64680;53.800;9.988;2023-09-30T09:43:04;17.50;19.60
75994;DHT22;64680;53.800;9.988;2023-09-30T09:45:36;17.70;16.50
75994;DHT22;64680;53.800;9.988;2023-09-30T09:48:06;17.80;16.40
75994;DHT22;64680;53.800;9.988;2023-09-30T09:50:32;17.90;16.30
75994;DHT22;64680;53.800;9.988;2023-09-30T09:52:59;18.10;15.60
75994;DHT22;64680;53.800;9.988;2023-09-30T09:55:26;18.20;12.50
75994;DHT22;64680;53.800;9.988;2023-09-30T09:57:53;18.30;10.50
75994;DHT22;64680;53.800;9.988;2023-09-30T10:00:21;18.30;9.10
75994;DHT22;64680;53.800;9.988;2023-09-30T10:02:49;18.40;8.30
75994;DHT22;64680;53.800;9.988;2023-09-30T10:05:16;18.30;9.00
75994;DHT22;64680;53.800;9.988;2023-09-30T10:07:52;18.20;7.20
75994;DHT22;64680;53.800;9.988;2023-09-30T10:10:20;18.20;5.30
75994;DHT22;64680;53.800;9.988;2023-09-30T10:12:46;18.20;9.30
75994;DHT22;64680;53.800;9.988;2023-09-30T10:18:19;18.20;7.30
75994;DHT22;64680;53.800;9.988;2023-09-30T10:20:45;18.00;8.00
75994;DHT22;64680;53.800;9.988;2023-09-30T10:23:23;18.10;8.20
75994;DHT22;64680;53.800;9.988;2023-09-30T10:25:54;18.20;9.40
75994;DHT22;64680;53.800;9.988;2023-09-30T10:28:42;18.30;12.10
75994;DHT22;64680;53.800;9.988;2023-09-30T10:31:16;18.40;6.40
75994;DHT22;64680;53.800;9.988;2023-09-30T10:36:28;18.40;6.90
75994;DHT22;64680;53.800;9.988;2023-09-30T10:39:00;18.40;6.50
75994;DHT22;64680;53.800;9.988;2023-09-30T10:46:48;18.20;7.60
75994;DHT22;64680;53.800;9.988;2023-09-30T10:51:46;18.10;9.70
75994;DHT22;64680;53.800;9.988;2023-09-30T10:54:13;18.00;4.80
75994;DHT22;64680;53.800;9.988;2023-09-30T10:56:39;18.10;7.60
75994;DHT22;64680;53.800;9.988;2023-09-30T10:59:04;18.30;7.60
75994;DHT22;64680;53.800;9.988;2023-09-30T11:01:34;18.50;5.20
75994;DHT22;64680;53.800;9.988;2023-09-30T11:04:01;18.60;2.00
75994;DHT22;64680;53.800;9.988;2023-09-30T11:06:32;18.70;1.00
75994;DHT22;64680;53.800;9.988;2023-09-30T11:08:59;18.70;1.10
75994;DHT22;64680;53.800;9.988;2023-09-30T11:11:42;18.60;1.00
75994;DHT22;64680;53.800;9.988;2023-09-30T11:16:47;18.20;1.00
75994;DHT22;64680;53.800;9.988;2023-09-30T11:19:14;18.00;1.00
75994;DHT22;64680;53.800;9.988;2023-09-30T11:21:40;18.00;3.10
75994;DHT22;64680;53.800;9.988;2023-09-30T11:24:07;18.20;3.60
75994;DHT22;64680;53.800;9.988;2023-09-30T11:26:33;18.60;1.00
75994;DHT22;64680;53.800;9.988;2023-09-30T11:29:10;18.60;1.00
75994;DHT22;64680;53.800;9.988;2023-09-30T11:31:38;18.70;1.00
75994;DHT22;64680;53.800;9.988;2023-09-30T11:34:04;18.50;1.00
75994;DHT22;64680;53.800;9.988;2023-09-30T11:36:30;18.50;1.00
75994;DHT22;64680;53.800;9.988;2023-09-30T11:38:59;18.70;1.00
75994;DHT22;64680;53.800;9.988;2023-09-30T11:41:38;18.70;1.00
75994;DHT22;64680;53.800;9.988;2023-09-30T11:44:11;18.60;1.00
75994;DHT22;64680;53.800;9.988;2023-09-30T11:46:55;18.30;1.00
75994;DHT22;64680;53.800;9.988;2023-09-30T11:49:40;18.00;1.00
75994;DHT22;64680;53.800;9.988;2023-09-30T11:52:11;18.10;1.00
75994;DHT22;64680;53.800;9.988;2023-09-30T11:54:39;18.00;1.00
75994;DHT22;64680;53.800;9.988;2023-09-30T11:57:07;17.90;1.00
75994;DHT22;64680;53.800;9.988;2023-09-30T11:59:39;17.70;1.00
75994;DHT22;64680;53.800;9.988;2023-09-30T12:02:07;17.60;1.00
75994;DHT22;64680;53.800;9.988;2023-09-30T12:04:34;17.50;1.00
75994;DHT22;64680;53.800;9.988;2023-09-30T12:07:00;17.40;1.00
75994;DHT22;64680;53.800;9.988;2023-09-30T12:09:26;17.30;1.00
75994;DHT22;64680;53.800;9.988;2023-09-30T12:11:53;17.30;1.00
75994;DHT22;64680;53.800;9.988;2023-09-30T12:14:20;17.30;1.00
75994;DHT22;64680;53.800;9.988;2023-09-30T12:16:46;17.20;1.00
75994;DHT22;64680;53.800;9.988;2023-09-30T12:19:13;17.20;3.80
75994;DHT22;64680;53.800;9.988;2023-09-30T12:21:41;17.20;3.10
75994;DHT22;64680;53.800;9.988;2023-09-30T12:24:07;17.40;2.80
75994;DHT22;64680;53.800;9.988;2023-09-30T12:26:37;17.40;1.20
75994;DHT22;64680;53.800;9.988;2023-09-30T12:29:04;17.60;1.00
75994;DHT22;64680;53.800;9.988;2023-09-30T12:31:31;17.80;1.00
75994;DHT22;64680;53.800;9.988;2023-09-30T12:33:56;18.00;1.00
75994;DHT22;64680;53.800;9.988;2023-09-30T12:36:22;18.00;1.00
75994;DHT22;64680;53.800;9.988;2023-09-30T12:38:48;17.80;1.00
75994;DHT22;64680;53.800;9.988;2023-09-30T12:41:14;17.60;1.00
75994;DHT22;64680;53.800;9.988;2023-09-30T12:43:40;17.60;1.00
75994;DHT22;64680;53.800;9.988;2023-09-30T12:46:08;17.40;1.00
75994;DHT22;64680;53.800;9.988;2023-09-30T12:48:34;17.20;1.00
75994;DHT22;64680;53.800;9.988;2023-09-30T12:50:59;17.10;1.00
75994;DHT22;64680;53.800;9.988;2023-09-30T12:53:25;17.10;1.00
75994;DHT22;64680;53.800;9.988;2023-09-30T12:55:51;17.20;1.80
75994;DHT22;64680;53.800;9.988;2023-09-30T12:58:16;17.40;1.00
75994;DHT22;64680;53.800;9.988;2023-09-30T13:00:42;17.60;1.00
75994;DHT22;64680;53.800;9.988;2023-09-30T13:03:08;17.60;1.00
75994;DHT22;64680;53.800;9.988;2023-09-30T13:05:33;17.50;1.00
75994;DHT22;64680;53.800;9.988;2023-09-30T13:07:59;17.40;1.00
75994;DHT22;64680;53.800;9.988;2023-09-30T13:10:25;17.30;1.00
75994;DHT22;64680;53.800;9.988;2023-09-30T13:12:51;17.20;1.00
75994;DHT22;64680;53.800;9.988;2023-09-30T13:15:18;17.10;3.20
75994;DHT22;64680;53.800;9.988;2023-09-30T13:17:44;17.10;5.20
75994;DHT22;64680;53.800;9.988;2023-09-30T13:20:10;17.10;2.30
75994;DHT22;64680;53.800;9.988;2023-09-30T13:22:38;17.10;1.30
75994;DHT22;64680;53.800;9.988;2023-09-30T13:25:04;17.40;2.30
75994;DHT22;64680;53.800;9.988;2023-09-30T13:27:31;17.60;1.00
75994;DHT22;64680;53.800;9.988;2023-09-30T13:29:56;17.70;1.00
75994;DHT22;64680;53.800;9.988;2023-09-30T13:32:24;17.70;1.00
75994;DHT22;64680;53.800;9.988;2023-09-30T13:34:51;17.80;1.00
75994;DHT22;64680;53.800;9.988;2023-09-30T13:37:17;17.80;1.00
75994;DHT22;64680;53.800;9.988;2023-09-30T13:39:42;17.70;1.00
75994;DHT22;64680;53.800;9.988;2023-09-30T13:42:08;17.70;1.50
75994;DHT22;64680;53.800;9.988;2023-09-30T13:44:34;17.70;1.00
75994;DHT22;64680;53.800;9.988;2023-09-30T13:47:00;17.70;1.00
75994;DHT22;64680;53.800;9.988;2023-09-30T13:49:25;17.60;1.00
75994;DHT22;64680;53.800;9.988;2023-09-30T13:51:51;17.50;1.00
75994;DHT22;64680;53.800;9.988;2023-09-30T13:54:16;17.60;1.00
75994;DHT22;64680;53.800;9.988;2023-09-30T13:56:42;17.50;1.00
75994;DHT22;64680;53.800;9.988;2023-09-30T13:59:09;17.50;1.00
75994;DHT22;64680;53.800;9.988;2023-09-30T14:01:35;17.50;1.20
75994;DHT22;64680;53.800;9.988;2023-09-30T14:04:00;17.60;1.00
75994;DHT22;64680;53.800;9.988;2023-09-30T14:06:26;17.60;1.60
75994;DHT22;64680;53.800;9.988;2023-09-30T14:08:52;17.70;1.00
75994;DHT22;64680;53.800;9.988;2023-09-30T14:11:18;17.70;1.00
75994;DHT22;64680;53.800;9.988;2023-09-30T14:13:44;17.70;1.00
75994;DHT22;64680;53.800;9.988;2023-09-30T14:16:10;17.70;1.00
75994;DHT22;64680;53.800;9.988;2023-09-30T14:18:36;17.70;1.00
75994;DHT22;64680;53.800;9.988;2023-09-30T14:21:04;17.80;1.00
75994;DHT22;64680;53.800;9.988;2023-09-30T14:23:30;17.80;1.00
75994;DHT22;64680;53.800;9.988;2023-09-30T14:25:56;17.80;1.00
75994;DHT22;64680;53.800;9.988;2023-09-30T14:28:22;17.90;1.00
75994;DHT22;64680;53.800;9.988;2023-09-30T14:30:48;17.70;1.00
75994;DHT22;64680;53.800;9.988;2023-09-30T14:33:16;17.60;1.00
75994;DHT22;64680;53.800;9.988;2023-09-30T14:35:41;17.50;1.00
75994;DHT22;64680;53.800;9.988;2023-09-30T14:38:09;17.60;1.00
75994;DHT22;64680;53.800;9.988;2023-09-30T14:40:37;17.50;1.00
75994;DHT22;64680;53.800;9.988;2023-09-30T14:43:05;17.50;1.00
75994;DHT22;64680;53.800;9.988;2023-09-30T14:45:31;17.40;1.00
75994;DHT22;64680;53.800;9.988;2023-09-30T14:47:56;17.30;1.00
75994;DHT22;64680;53.800;9.988;2023-09-30T14:50:22;17.20;1.00
75994;DHT22;64680;53.800;9.988;2023-09-30T14:52:48;17.10;1.00
75994;DHT22;64680;53.800;9.988;2023-09-30T14:55:14;17.10;1.00
75994;DHT22;64680;53.800;9.988;2023-09-30T14:57:41;17.10;1.00
75994;DHT22;64680;53.800;9.988;2023-09-30T15:00:07;17.00;1.00
75994;DHT22;64680;53.800;9.988;2023-09-30T15:02:33;17.00;1.00
75994;DHT22;64680;53.800;9.988;2023-09-30T15:04:59;17.00;1.00
75994;DHT22;64680;53.800;9.988;2023-09-30T15:07:25;17.00;1.00
75994;DHT22;64680;53.800;9.988;2023-09-30T15:09:50;16.90;1.00
75994;DHT22;64680;53.800;9.988;2023-09-30T15:12:17;16.80;1.00
75994;DHT22;64680;53.800;9.988;2023-09-30T15:14:43;16.80;1.00
75994;DHT22;64680;53.800;9.988;2023-09-30T15:17:10;16.70;1.00
75994;DHT22;64680;53.800;9.988;2023-09-30T15:19:35;16.70;1.00
75994;DHT22;64680;53.800;9.988;2023-09-30T15:22:01;16.70;1.00
75994;DHT22;64680;53.800;9.988;2023-09-30T15:24:26;16.70;1.00
75994;DHT22;64680;53.800;9.988;2023-09-30T15:26:52;16.70;1.00
75994;DHT22;64680;53.800;9.988;2023-09-30T15:29:18;16.60;1.00
75994;DHT22;64680;53.800;9.988;2023-09-30T15:31:43;16.50;1.20
75994;DHT22;64680;53.800;9.988;2023-09-30T15:34:09;16.50;1.00
75994;DHT22;64680;53.800;9.988;2023-09-30T15:36:36;16.50;1.20
75994;DHT22;64680;53.800;9.988;2023-09-30T15:39:02;16.40;2.10
75994;DHT22;64680;53.800;9.988;2023-09-30T15:41:28;16.30;3.00
75994;DHT22;64680;53.800;9.988;2023-09-30T15:43:53;16.40;2.20
75994;DHT22;64680;53.800;9.988;2023-09-30T15:46:23;16.30;4.60
75994;DHT22;64680;53.800;9.988;2023-09-30T15:48:48;16.20;3.60
75994;DHT22;64680;53.800;9.988;2023-09-30T15:51:14;16.20;5.40
75994;DHT22;64680;53.800;9.988;2023-09-30T15:53:40;16.10;5.50